createdAt,value
2023-02-15T00:00:12.588Z,14.27
2023-02-15T00:02:41.209Z,13.73
2023-02-15T00:05:10.840Z,11.07
2023-02-15T00:07:39.067Z,13.30
2023-02-15T00:10:09.483Z,15.00
2023-02-15T00:12:37.673Z,12.07
2023-02-15T00:15:07.626Z,13.02
2023-02-15T00:17:35.909Z,12.43
2023-02-15T00:20:04.290Z,12.82
2023-02-15T00:22:32.562Z,12.75
2023-02-15T00:25:00.808Z,14.15
2023-02-15T00:27:29.012Z,14.13
2023-02-15T00:29:57.258Z,13.85
2023-02-15T00:32:26.841Z,13.07
2023-02-15T00:34:54.966Z,13.52
2023-02-15T00:37:23.139Z,13.93
2023-02-15T00:39:51.408Z,15.15
2023-02-15T00:42:19.780Z,13.80
2023-02-15T00:44:48.065Z,15.35
2023-02-15T00:47:16.450Z,12.25
2023-02-15T00:49:46.269Z,12.50
2023-02-15T00:52:14.413Z,12.98
2023-02-15T00:54:42.592Z,14.15
2023-02-15T00:57:10.780Z,13.30
2023-02-15T00:59:38.952Z,15.05
2023-02-15T01:02:07.315Z,11.88
2023-02-15T01:04:35.634Z,13.93
2023-02-15T01:07:05.428Z,14.07
2023-02-15T01:09:33.587Z,12.95
2023-02-15T01:12:01.679Z,14.70
2023-02-15T01:14:29.826Z,14.98
2023-02-15T01:16:58.040Z,13.48
2023-02-15T01:19:26.230Z,14.95
2023-02-15T01:21:54.443Z,14.02
2023-02-15T01:24:24.176Z,14.98
2023-02-15T01:26:52.455Z,14.68
2023-02-15T01:29:20.734Z,14.73
2023-02-15T01:31:49.136Z,15.05
2023-02-15T01:34:17.494Z,14.60
2023-02-15T01:36:45.816Z,14.50
2023-02-15T01:39:14.018Z,13.18
2023-02-15T01:41:43.780Z,12.60
2023-02-15T01:44:47.646Z,13.60
2023-02-15T01:47:19.861Z,14.70
2023-02-15T01:49:49.752Z,13.07
2023-02-15T01:52:20.689Z,14.02
2023-02-15T01:54:50.088Z,15.57
2023-02-15T01:57:24.573Z,14.45
2023-02-15T01:59:56.444Z,13.13
2023-02-15T02:02:26.140Z,14.00
2023-02-15T02:04:57.136Z,12.05
2023-02-15T02:07:29.125Z,13.48
2023-02-15T02:09:57.668Z,13.75
2023-02-15T02:12:28.102Z,13.90
2023-02-15T02:14:57.239Z,14.88
2023-02-15T02:17:37.270Z,14.27
2023-02-15T02:20:30.074Z,13.23
2023-02-15T02:23:27.604Z,12.02
2023-02-15T02:26:41.149Z,14.07
2023-02-15T02:29:35.451Z,13.30
2023-02-15T02:32:25.506Z,12.55
2023-02-15T02:35:03.338Z,14.00
2023-02-15T02:37:38.460Z,14.27
2023-02-15T02:40:15.343Z,13.10
2023-02-15T02:42:46.622Z,14.63
2023-02-15T02:45:19.794Z,13.93
2023-02-15T02:47:51.487Z,13.13
2023-02-15T02:50:26.335Z,14.20
2023-02-15T02:52:56.183Z,13.32
2023-02-15T02:55:30.021Z,14.90
2023-02-15T02:58:02.787Z,14.27
2023-02-15T03:00:35.374Z,13.02
2023-02-15T03:03:08.468Z,14.35
2023-02-15T03:05:43.306Z,15.27
2023-02-15T03:08:11.853Z,14.07
2023-02-15T03:10:41.491Z,14.75
2023-02-15T03:13:10.967Z,13.50
2023-02-15T03:15:59.805Z,14.68
2023-02-15T03:18:31.793Z,13.75
2023-02-15T03:21:03.733Z,14.70
2023-02-15T03:23:34.678Z,14.38
2023-02-15T03:26:05.341Z,14.27
2023-02-15T03:28:38.767Z,15.48
2023-02-15T03:31:09.555Z,15.20
2023-02-15T03:33:40.422Z,14.77
2023-02-15T03:36:20.524Z,16.02
2023-02-15T03:38:55.435Z,13.05
2023-02-15T03:41:28.903Z,15.13
2023-02-15T03:44:00.363Z,14.82
2023-02-15T03:46:34.901Z,15.38
2023-02-15T03:49:06.714Z,14.82
2023-02-15T03:51:39.605Z,14.07
2023-02-15T03:54:11.278Z,14.30
2023-02-15T03:56:42.096Z,14.40
2023-02-15T03:59:28.019Z,14.73
2023-02-15T04:02:07.970Z,14.85
2023-02-15T04:04:38.384Z,15.02
2023-02-15T04:07:10.458Z,15.73
2023-02-15T04:09:56.158Z,14.68
2023-02-15T04:12:24.884Z,14.18
2023-02-15T04:15:10.505Z,15.00
2023-02-15T04:17:39.061Z,15.80
2023-02-15T04:20:25.902Z,16.17
2023-02-15T04:23:12.929Z,14.48
2023-02-15T04:25:41.112Z,15.88
2023-02-15T04:28:09.702Z,14.48
2023-02-15T04:30:38.056Z,14.85
2023-02-15T04:33:06.346Z,14.23
2023-02-15T04:35:34.639Z,15.32
2023-02-15T04:38:04.364Z,14.73
2023-02-15T04:40:32.718Z,16.05
2023-02-15T04:43:00.893Z,15.77
2023-02-15T04:45:29.558Z,15.68
2023-02-15T04:47:57.863Z,16.60
2023-02-15T04:50:26.054Z,15.38
2023-02-15T04:52:54.407Z,16.33
2023-02-15T04:55:24.168Z,15.82
2023-02-15T04:57:52.335Z,14.57
2023-02-15T05:00:21.211Z,13.85
2023-02-15T05:02:49.403Z,15.90
2023-02-15T05:05:18.244Z,15.88
2023-02-15T05:07:46.666Z,15.30
2023-02-15T05:10:14.914Z,15.27
2023-02-15T05:12:44.637Z,15.02
2023-02-15T05:15:12.901Z,16.48
2023-02-15T05:17:41.716Z,16.98
2023-02-15T05:20:10.626Z,16.95
2023-02-15T05:22:38.961Z,15.75
2023-02-15T05:25:25.085Z,17.35
2023-02-15T05:28:12.053Z,17.15
2023-02-15T05:30:41.333Z,15.10
2023-02-15T05:33:09.696Z,16.13
2023-02-15T05:35:37.937Z,16.88
2023-02-15T05:38:06.230Z,17.73
2023-02-15T05:40:34.582Z,16.42
2023-02-15T05:43:04.305Z,16.25
2023-02-15T05:45:32.593Z,17.60
2023-02-15T05:48:00.788Z,16.17
2023-02-15T05:50:29.157Z,17.13
2023-02-15T05:52:57.718Z,17.20
2023-02-15T05:55:26.014Z,17.00
2023-02-15T05:57:54.311Z,16.20
2023-02-15T06:00:24.382Z,15.75
2023-02-15T06:02:52.693Z,14.95
2023-02-15T06:05:20.870Z,15.50
2023-02-15T06:07:49.100Z,15.52
2023-02-15T06:10:17.739Z,16.92
2023-02-15T06:12:46.550Z,16.20
2023-02-15T06:15:15.007Z,16.35
2023-02-15T06:17:45.323Z,15.65
2023-02-15T06:20:14.528Z,17.30
2023-02-15T06:22:42.669Z,16.55
2023-02-15T06:25:12.329Z,14.88
2023-02-15T06:27:43.269Z,17.92
2023-02-15T06:30:13.522Z,16.05
2023-02-15T06:32:42.487Z,15.05
2023-02-15T06:35:12.734Z,15.18
2023-02-15T06:37:41.416Z,15.32
2023-02-15T06:40:10.862Z,15.68
2023-02-15T06:42:39.082Z,17.00
2023-02-15T06:45:08.582Z,15.32
2023-02-15T06:47:37.060Z,14.38
2023-02-15T06:50:06.255Z,15.82
2023-02-15T06:52:36.346Z,14.13
2023-02-15T06:55:04.570Z,14.00
2023-02-15T06:57:34.222Z,15.52
2023-02-15T07:00:02.442Z,16.33
2023-02-15T07:02:30.824Z,13.48
2023-02-15T07:04:59.249Z,15.15
2023-02-15T07:07:27.594Z,14.68
2023-02-15T07:09:57.217Z,14.50
2023-02-15T07:12:42.584Z,14.88
2023-02-15T07:15:11.852Z,14.98
2023-02-15T07:17:40.121Z,14.02
2023-02-15T07:20:10.890Z,15.75
2023-02-15T07:22:39.578Z,14.80
2023-02-15T07:25:11.512Z,14.75
2023-02-15T07:27:40.181Z,13.68
2023-02-15T07:30:10.168Z,13.82
2023-02-15T07:32:58.496Z,14.93
2023-02-15T07:35:27.290Z,15.77
2023-02-15T07:37:56.478Z,15.38
2023-02-15T07:40:26.306Z,15.43
2023-02-15T07:42:55.970Z,13.95
2023-02-15T07:45:24.276Z,15.55
2023-02-15T07:47:52.556Z,13.95
2023-02-15T07:50:20.964Z,15.45
2023-02-15T07:52:49.217Z,15.32
2023-02-15T07:55:17.622Z,14.27
2023-02-15T07:57:48.815Z,15.50
2023-02-15T08:00:18.580Z,15.60
2023-02-15T08:03:11.170Z,14.02
2023-02-15T08:05:39.554Z,15.43
2023-02-15T08:08:07.958Z,14.52
2023-02-15T08:10:54.555Z,14.73
2023-02-15T08:13:24.383Z,16.15
2023-02-15T08:15:54.083Z,16.48
2023-02-15T08:18:22.278Z,15.00
2023-02-15T08:20:52.079Z,15.25
2023-02-15T08:23:20.608Z,13.60
2023-02-15T08:25:49.060Z,14.25
2023-02-15T08:28:17.324Z,15.20
2023-02-15T08:30:47.050Z,14.18
2023-02-15T08:33:15.269Z,15.02
2023-02-15T08:35:43.427Z,15.80
2023-02-15T08:38:11.657Z,16.27
2023-02-15T08:40:40.295Z,15.18
2023-02-15T08:43:08.508Z,15.43
2023-02-15T08:45:36.935Z,15.80
2023-02-15T08:48:07.009Z,14.02
2023-02-15T08:50:35.173Z,15.30
2023-02-15T08:53:03.418Z,15.60
2023-02-15T08:55:31.741Z,13.82
2023-02-15T08:57:59.987Z,13.98
2023-02-15T09:00:29.430Z,13.82
2023-02-15T09:02:57.725Z,13.20
2023-02-15T09:05:27.584Z,14.65
2023-02-15T09:07:55.826Z,14.13
2023-02-15T09:10:24.091Z,13.52
2023-02-15T09:12:52.500Z,14.82
2023-02-15T09:15:20.653Z,15.75
2023-02-15T09:17:48.987Z,14.82
2023-02-15T09:20:17.433Z,15.13
2023-02-15T09:22:47.934Z,14.98
2023-02-15T09:25:16.218Z,15.07
2023-02-15T09:27:44.519Z,14.10
2023-02-15T09:30:14.279Z,14.00
2023-02-15T09:32:42.473Z,15.45
2023-02-15T09:35:10.855Z,14.23
2023-02-15T09:37:39.577Z,15.40
2023-02-15T09:40:10.284Z,14.80
2023-02-15T09:43:01.274Z,15.63
2023-02-15T09:45:43.447Z,15.57
2023-02-15T09:48:43.334Z,13.68
2023-02-15T09:51:50.134Z,14.60
2023-02-15T09:54:44.253Z,14.32
2023-02-15T09:57:25.716Z,15.98
2023-02-15T10:00:05.206Z,14.45
2023-02-15T10:02:48.685Z,14.20
2023-02-15T10:05:33.014Z,14.52
2023-02-15T10:08:32.005Z,14.70
2023-02-15T10:11:22.305Z,14.68
2023-02-15T10:14:01.186Z,13.95
2023-02-15T10:16:40.039Z,14.68
2023-02-15T10:19:17.535Z,15.25
2023-02-15T10:22:00.905Z,15.70
2023-02-15T10:24:52.023Z,16.00
2023-02-15T10:27:22.972Z,15.07
2023-02-15T10:30:05.906Z,15.68
2023-02-15T10:32:39.750Z,15.20
2023-02-15T10:35:17.706Z,16.42
2023-02-15T10:38:12.281Z,15.85
2023-02-15T10:40:48.838Z,14.38
2023-02-15T10:43:32.066Z,15.20
2023-02-15T10:46:11.937Z,14.88
2023-02-15T10:49:20.853Z,14.75
2023-02-15T10:52:02.038Z,13.98
2023-02-15T10:54:38.221Z,14.60
2023-02-15T10:57:15.990Z,14.70
2023-02-15T11:00:01.183Z,14.23
2023-02-15T11:02:42.836Z,14.45
2023-02-15T11:05:28.944Z,14.55
2023-02-15T11:08:01.744Z,13.40
2023-02-15T11:10:34.865Z,16.00
2023-02-15T11:13:10.205Z,14.23
2023-02-15T11:15:42.611Z,14.68
2023-02-15T11:18:18.612Z,14.82
2023-02-15T11:20:55.510Z,14.23
2023-02-15T11:23:24.975Z,14.77
2023-02-15T11:25:59.564Z,13.80
2023-02-15T11:28:33.332Z,14.77
2023-02-15T11:31:12.334Z,14.18
2023-02-15T11:33:48.162Z,13.95
2023-02-15T11:36:20.643Z,14.02
2023-02-15T11:38:51.620Z,13.40
2023-02-15T11:41:25.177Z,13.18
2023-02-15T11:43:59.046Z,15.05
2023-02-15T11:46:27.676Z,14.13
2023-02-15T11:48:57.576Z,14.20
2023-02-15T11:51:26.627Z,14.35
2023-02-15T11:53:55.025Z,14.68
2023-02-15T11:56:25.574Z,14.45
2023-02-15T11:58:59.518Z,15.00
2023-02-15T12:01:33.053Z,13.82
2023-02-15T12:04:08.868Z,14.20
2023-02-15T12:06:43.982Z,13.65
2023-02-15T12:09:23.731Z,14.23
2023-02-15T12:11:52.201Z,14.23
2023-02-15T12:14:21.376Z,13.25
2023-02-15T12:16:52.057Z,14.73
2023-02-15T12:19:33.474Z,14.00
2023-02-15T12:22:04.530Z,15.68
2023-02-15T12:24:35.407Z,14.00
2023-02-15T12:27:06.462Z,13.90
2023-02-15T12:29:41.813Z,15.20
2023-02-15T12:32:19.308Z,13.23
2023-02-15T12:34:49.405Z,14.75
2023-02-15T12:37:25.148Z,13.77
2023-02-15T12:39:56.313Z,14.38
2023-02-15T12:42:25.455Z,14.95
2023-02-15T12:45:03.295Z,14.50
2023-02-15T12:47:33.549Z,14.57
2023-02-15T12:50:18.766Z,14.05
2023-02-15T12:52:49.705Z,14.00
2023-02-15T12:55:24.377Z,13.07
2023-02-15T12:58:08.195Z,13.75
2023-02-15T13:00:36.720Z,13.07
2023-02-15T13:03:05.587Z,13.90
2023-02-15T13:05:39.999Z,14.35
2023-02-15T13:08:14.243Z,14.75
2023-02-15T13:10:45.358Z,14.90
2023-02-15T13:13:22.984Z,15.20
2023-02-15T13:15:54.440Z,14.52
2023-02-15T13:18:33.520Z,14.20
2023-02-15T13:21:13.218Z,15.25
2023-02-15T13:23:45.084Z,15.98
2023-02-15T13:26:19.606Z,14.13
2023-02-15T13:28:49.674Z,14.30
2023-02-15T13:31:20.433Z,15.13
2023-02-15T13:33:53.315Z,14.60
2023-02-15T13:36:30.509Z,13.95
2023-02-15T13:39:09.431Z,14.32
2023-02-15T13:41:50.278Z,16.20
2023-02-15T13:44:30.133Z,14.85
2023-02-15T13:47:20.045Z,14.65
2023-02-15T13:50:00.621Z,14.45
2023-02-15T13:52:32.034Z,14.15
2023-02-15T13:55:28.839Z,14.75
2023-02-15T13:58:09.354Z,14.38
2023-02-15T14:00:45.192Z,15.27
2023-02-15T14:03:54.562Z,15.27
2023-02-15T14:06:52.085Z,14.75
2023-02-15T14:09:33.400Z,14.15
2023-02-15T14:12:14.118Z,14.50
2023-02-15T14:14:55.567Z,14.95
2023-02-15T14:17:31.017Z,15.30
2023-02-15T14:20:03.736Z,14.25
2023-02-15T14:22:37.508Z,14.15
2023-02-15T14:25:19.649Z,14.20
2023-02-15T14:27:56.809Z,15.93
2023-02-15T14:30:31.315Z,14.75
2023-02-15T14:33:04.138Z,14.20
2023-02-15T14:35:33.416Z,14.85
2023-02-15T14:38:09.799Z,15.15
2023-02-15T14:41:05.399Z,13.95
2023-02-15T14:43:45.890Z,13.18
2023-02-15T14:46:23.794Z,14.02
2023-02-15T14:48:54.577Z,14.68
2023-02-15T14:51:57.789Z,14.45
2023-02-15T14:54:58.459Z,12.60
2023-02-15T14:57:34.811Z,14.20
2023-02-15T15:00:20.277Z,15.00
2023-02-15T15:02:50.901Z,14.43
2023-02-15T15:05:23.784Z,16.50
2023-02-15T15:07:55.140Z,13.85
2023-02-15T15:10:41.874Z,15.10
2023-02-15T15:13:53.779Z,14.95
2023-02-15T15:16:48.843Z,13.68
2023-02-15T15:20:09.338Z,14.32
2023-02-15T15:22:38.865Z,14.10
2023-02-15T15:25:12.697Z,14.48
2023-02-15T15:27:53.727Z,13.85
2023-02-15T15:31:01.971Z,14.90
2023-02-15T15:34:10.470Z,14.50
2023-02-15T15:37:12.031Z,14.25
2023-02-15T15:40:15.358Z,14.80
2023-02-15T15:42:52.415Z,15.93
2023-02-15T15:46:05.531Z,17.52
2023-02-15T15:48:36.479Z,15.48
2023-02-15T15:51:14.857Z,15.48
2023-02-15T15:53:48.081Z,16.13
2023-02-15T15:56:20.683Z,16.45
2023-02-15T15:58:53.405Z,15.38
2023-02-15T16:01:28.577Z,16.10
2023-02-15T16:03:58.536Z,17.48
2023-02-15T16:06:36.739Z,14.57
2023-02-15T16:09:18.557Z,15.18
2023-02-15T16:11:48.856Z,14.95
2023-02-15T16:14:22.676Z,16.70
2023-02-15T16:16:53.407Z,16.35
2023-02-15T16:19:25.550Z,16.25
2023-02-15T16:21:56.915Z,16.63
2023-02-15T16:24:45.508Z,16.00
2023-02-15T16:27:24.368Z,16.42
2023-02-15T16:29:52.629Z,17.25
2023-02-15T16:32:23.029Z,18.05
2023-02-15T16:34:55.943Z,18.45
2023-02-15T16:37:28.220Z,16.88
2023-02-15T16:39:57.471Z,17.17
2023-02-15T16:42:26.763Z,15.88
2023-02-15T16:45:08.937Z,18.70
2023-02-15T16:47:42.637Z,17.58
2023-02-15T16:50:20.088Z,17.52
2023-02-15T16:52:49.975Z,18.00
2023-02-15T16:55:24.346Z,17.85
2023-02-15T16:57:53.995Z,19.25
2023-02-15T17:00:25.347Z,18.95
2023-02-15T17:03:00.071Z,17.98
2023-02-15T17:05:33.661Z,18.77
2023-02-15T17:08:18.596Z,19.20
2023-02-15T17:11:02.825Z,18.42
2023-02-15T17:13:32.220Z,18.30
2023-02-15T17:16:28.253Z,18.10
2023-02-15T17:18:59.408Z,18.77
2023-02-15T17:21:32.855Z,21.80
2023-02-15T17:24:05.221Z,20.00
2023-02-15T17:26:36.129Z,19.83
2023-02-15T17:29:14.320Z,23.38
2023-02-15T17:31:42.689Z,19.33
2023-02-15T17:34:49.458Z,21.27
2023-02-15T17:37:28.065Z,18.63
2023-02-15T17:39:59.336Z,20.27
2023-02-15T17:42:28.293Z,19.02
2023-02-15T17:44:56.616Z,20.75
2023-02-15T17:47:27.918Z,19.90
2023-02-15T17:49:56.283Z,20.52
2023-02-15T17:52:25.679Z,20.13
2023-02-15T17:55:11.064Z,20.65
2023-02-15T17:57:40.936Z,21.63
2023-02-15T18:00:27.894Z,20.98
2023-02-15T18:03:13.276Z,22.70
2023-02-15T18:05:58.724Z,20.50
2023-02-15T18:08:46.475Z,19.00
2023-02-15T18:11:32.656Z,20.40
2023-02-15T18:14:02.572Z,21.75
2023-02-15T18:16:33.364Z,20.35
2023-02-15T18:19:02.067Z,21.73
2023-02-15T18:21:30.200Z,20.30
2023-02-15T18:23:58.671Z,19.83
2023-02-15T18:26:28.481Z,20.48
2023-02-15T18:28:56.775Z,22.42
2023-02-15T18:31:26.862Z,18.50
2023-02-15T18:33:57.371Z,21.70
2023-02-15T18:36:29.421Z,19.33
2023-02-15T18:38:58.292Z,21.27
2023-02-15T18:41:26.983Z,21.88
2023-02-15T18:43:55.958Z,21.08
2023-02-15T18:46:25.674Z,20.70
2023-02-15T18:48:53.798Z,21.33
2023-02-15T18:51:24.307Z,20.63
2023-02-15T18:53:54.397Z,21.67
2023-02-15T18:56:24.711Z,22.55
2023-02-15T18:58:52.921Z,22.80
2023-02-15T19:01:22.757Z,22.98
2023-02-15T19:03:53.079Z,21.45
2023-02-15T19:06:24.995Z,23.00
2023-02-15T19:08:54.151Z,22.25
2023-02-15T19:11:26.856Z,22.63
2023-02-15T19:13:56.146Z,22.50
2023-02-15T19:16:30.774Z,22.42
2023-02-15T19:19:01.733Z,21.27
2023-02-15T19:21:33.418Z,22.17
2023-02-15T19:24:05.374Z,23.08
2023-02-15T19:26:45.004Z,22.17
2023-02-15T19:29:16.291Z,21.23
2023-02-15T19:31:44.782Z,21.60
2023-02-15T19:34:18.872Z,23.02
2023-02-15T19:36:50.808Z,22.42
2023-02-15T19:39:26.665Z,21.65
2023-02-15T19:41:55.282Z,22.13
2023-02-15T19:44:24.081Z,23.73
2023-02-15T19:46:52.392Z,22.50
2023-02-15T19:49:22.130Z,21.60
2023-02-15T19:51:50.920Z,22.30
2023-02-15T19:54:30.940Z,23.10
2023-02-15T19:57:00.039Z,23.63
2023-02-15T19:59:30.048Z,23.27
2023-02-15T20:01:58.788Z,24.02
2023-02-15T20:04:29.092Z,24.73
2023-02-15T20:07:00.373Z,22.23
2023-02-15T20:09:32.345Z,25.90
2023-02-15T20:12:00.858Z,24.20
2023-02-15T20:14:29.463Z,24.05
2023-02-15T20:16:57.816Z,23.48
2023-02-15T20:19:27.725Z,23.95
2023-02-15T20:21:56.721Z,22.75
2023-02-15T20:24:32.946Z,23.50
2023-02-15T20:27:01.509Z,23.67
2023-02-15T20:29:29.695Z,22.45
2023-02-15T20:32:01.388Z,25.17
2023-02-15T20:34:31.188Z,22.77
2023-02-15T20:36:59.529Z,25.58
2023-02-15T20:39:28.354Z,23.93
2023-02-15T20:41:56.825Z,21.85
2023-02-15T20:44:26.463Z,25.55
2023-02-15T20:46:57.615Z,23.20
2023-02-15T20:49:27.737Z,23.17
2023-02-15T20:51:58.731Z,24.42
2023-02-15T20:54:28.785Z,23.90
2023-02-15T20:56:57.392Z,24.08
2023-02-15T20:59:28.127Z,24.42
2023-02-15T21:01:59.893Z,24.42
2023-02-15T21:04:31.654Z,25.52
2023-02-15T21:07:02.109Z,25.10
2023-02-15T21:09:30.916Z,23.08
2023-02-15T21:12:02.874Z,24.15
2023-02-15T21:14:31.189Z,23.75
2023-02-15T21:16:59.446Z,24.33
2023-02-15T21:19:28.787Z,24.02
2023-02-15T21:21:58.101Z,22.83
2023-02-15T21:24:29.662Z,23.30
2023-02-15T21:27:01.482Z,23.37
2023-02-15T21:29:31.081Z,22.73
2023-02-15T21:32:00.792Z,24.30
2023-02-15T21:34:29.217Z,23.63
2023-02-15T21:36:57.531Z,29.45
2023-02-15T21:39:30.755Z,26.43
2023-02-15T21:42:16.280Z,23.87
2023-02-15T21:45:01.699Z,24.73
2023-02-15T21:47:48.481Z,21.50
2023-02-15T21:50:32.330Z,22.90
2023-02-15T21:53:00.743Z,21.70
2023-02-15T21:55:32.625Z,23.98
2023-02-15T21:58:01.217Z,24.60
2023-02-15T22:00:29.694Z,21.60
2023-02-15T22:03:00.958Z,22.38
2023-02-15T22:05:31.323Z,24.10
2023-02-15T22:08:00.066Z,23.13
2023-02-15T22:10:32.432Z,19.63
2023-02-15T22:13:01.924Z,23.77
2023-02-15T22:15:34.570Z,22.70
2023-02-15T22:18:03.110Z,21.03
2023-02-15T22:20:31.556Z,23.25
2023-02-15T22:23:00.043Z,23.92
2023-02-15T22:25:29.887Z,21.73
2023-02-15T22:27:58.311Z,22.88
2023-02-15T22:30:29.439Z,21.47
2023-02-15T22:32:59.170Z,22.42
2023-02-15T22:35:29.419Z,21.92
2023-02-15T22:37:57.900Z,21.37
2023-02-15T22:40:31.501Z,20.90
2023-02-15T22:43:03.939Z,20.23
2023-02-15T22:45:37.541Z,21.00
2023-02-15T22:48:06.038Z,22.33
2023-02-15T22:50:37.045Z,20.70
2023-02-15T22:53:07.130Z,21.50
2023-02-15T22:55:39.309Z,20.90
2023-02-15T22:58:08.206Z,21.00
2023-02-15T23:00:40.895Z,19.58
2023-02-15T23:03:15.591Z,21.47
2023-02-15T23:05:44.191Z,22.60
2023-02-15T23:08:13.198Z,21.00
2023-02-15T23:10:44.839Z,21.80
2023-02-15T23:13:26.167Z,19.40
2023-02-15T23:15:57.064Z,21.63
2023-02-15T23:18:30.497Z,22.83
2023-02-15T23:21:01.131Z,20.87
2023-02-15T23:23:32.869Z,23.33
2023-02-15T23:26:04.612Z,22.33
2023-02-15T23:28:35.867Z,23.33
2023-02-15T23:31:07.438Z,22.55
2023-02-15T23:33:36.549Z,22.77
2023-02-15T23:36:05.191Z,23.57
2023-02-15T23:38:34.413Z,26.13
2023-02-15T23:41:22.969Z,24.27
2023-02-15T23:43:56.809Z,23.20
2023-02-15T23:46:28.449Z,24.13
2023-02-15T23:48:57.570Z,22.13
2023-02-15T23:51:33.406Z,26.43
2023-02-15T23:54:01.644Z,24.07
2023-02-15T23:56:31.261Z,26.47
2023-02-15T23:58:59.625Z,25.53
